Time,TemperatureF,DewpointF,PressureIn,WindDirection,WindDirectionDegrees,WindSpeedMPH,WindSpeedGustMPH,Humidity,HourlyPrecipIn,Conditions,Clouds,dailyrainin,SolarRadiationWatts/m^2,SoftwareType,DateUTC
2013-04-19 00:01:00,33.0,21.0,-100.00,ESE,112,1.0,7.0,62,0.00,,,0.00,0.000000,,2013-04-19 06:01:00,
2013-04-19 00:32:00,32.0,20.0,-100.00,North,349,1.0,2.0,62,0.00,,,-99.99,0.000000,,2013-04-19 06:32:00,
2013-04-19 00:42:00,32.0,20.0,-100.00,North,349,1.0,2.0,62,0.00,,,-99.99,0.000000,,2013-04-19 06:42:00,
2013-04-19 00:53:00,32.0,20.0,-100.00,North,349,1.0,2.0,62,0.00,,,-99.99,0.000000,,2013-04-19 06:53:00,
2013-04-19 01:01:00,32.0,20.0,-100.00,North,349,1.0,2.0,62,0.00,,,-99.99,0.000000,,2013-04-19 07:01:00,
2013-04-19 01:02:00,32.0,21.0,-100.00,NNW,343,1.0,2.0,64,0.00,,,0.00,0.000000,,2013-04-19 07:02:00,
2013-04-19 01:32:00,32.0,21.0,-100.00,NNW,343,1.0,2.0,64,0.00,,,0.00,0.000000,,2013-04-19 07:32:00,
2013-04-19 01:42:00,32.0,21.0,-100.00,NNW,343,1.0,2.0,64,0.00,,,0.00,0.000000,,2013-04-19 07:42:00,
2013-04-19 01:52:00,32.0,21.0,-100.00,NNW,343,1.0,2.0,64,0.00,,,0.00,0.000000,,2013-04-19 07:52:00,
2013-04-19 02:33:00,32.0,22.0,-100.00,NNW,334,2.0,5.0,66,0.00,,,-99.99,0.000000,,2013-04-19 08:33:00,
2013-04-19 02:42:00,32.0,22.0,-100.00,NNW,334,2.0,5.0,66,0.00,,,-99.99,0.000000,,2013-04-19 08:42:00,
2013-04-19 02:52:00,32.0,22.0,-100.00,NNW,334,2.0,5.0,66,0.00,,,-99.99,0.000000,,2013-04-19 08:52:00,
2013-04-19 03:01:00,32.0,22.0,-100.00,NNW,334,2.0,5.0,66,0.00,,,-99.99,0.000000,,2013-04-19 09:01:00,
2013-04-19 03:02:00,32.0,23.0,-100.00,NNW,346,1.0,3.0,68,0.00,,,0.00,0.000000,,2013-04-19 09:02:00,
2013-04-19 03:33:00,32.0,23.0,-100.00,NNW,346,1.0,3.0,68,0.00,,,0.00,0.000000,,2013-04-19 09:33:00,
2013-04-19 03:43:00,32.0,23.0,-100.00,NNW,346,1.0,3.0,68,0.00,,,0.00,0.000000,,2013-04-19 09:43:00,
2013-04-19 03:52:00,32.0,23.0,-100.00,NNW,346,1.0,3.0,68,0.00,,,0.00,0.000000,,2013-04-19 09:52:00,
2013-04-19 04:02:00,32.0,24.0,-100.00,NNW,341,2.0,2.0,71,0.00,,,0.00,0.000000,,2013-04-19 10:02:00,
2013-04-19 04:33:00,32.0,24.0,-100.00,NNW,341,2.0,2.0,71,0.00,,,0.00,0.000000,,2013-04-19 10:33:00,
2013-04-19 04:42:00,32.0,24.0,-100.00,NNW,341,2.0,2.0,71,0.00,,,0.00,0.000000,,2013-04-19 10:42:00,
2013-04-19 04:52:00,32.0,24.0,-100.00,NNW,341,2.0,2.0,71,0.00,,,0.00,0.000000,,2013-04-19 10:52:00,
2013-04-19 05:02:00,32.0,26.0,-100.00,NNW,334,1.0,4.0,77,0.00,,,0.00,0.000000,,2013-04-19 11:02:00,
2013-04-19 05:32:00,32.0,26.0,-100.00,NNW,334,1.0,4.0,77,0.00,,,0.00,0.000000,,2013-04-19 11:32:00,
2013-04-19 05:43:00,32.0,26.0,-100.00,NNW,334,1.0,4.0,77,0.00,,,0.00,0.000000,,2013-04-19 11:43:00,
2013-04-19 05:52:00,32.0,26.0,-100.00,NNW,334,1.0,4.0,77,0.00,,,0.00,0.000000,,2013-04-19 11:52:00,
2013-04-19 06:22:00,31.0,26.0,-100.00,SE,132,2.0,4.0,80,0.00,,,0.00,0.000000,,2013-04-19 12:22:00,
2013-04-19 06:32:00,31.0,26.0,-100.00,SE,132,2.0,4.0,80,0.00,,,0.00,0.000000,,2013-04-19 12:32:00,
2013-04-19 06:42:00,31.0,26.0,-100.00,SE,132,2.0,4.0,80,0.00,,,0.00,0.000000,,2013-04-19 12:42:00,
2013-04-19 06:52:00,31.0,26.0,-100.00,SE,132,2.0,4.0,80,0.00,,,0.00,0.000000,,2013-04-19 12:52:00,
2013-04-19 07:01:00,31.0,26.0,-100.00,SE,132,2.0,4.0,80,0.00,,,0.00,0.000000,,2013-04-19 13:01:00,
2013-04-19 07:32:00,31.0,28.0,-100.00,West,269,2.0,3.0,87,0.00,,,0.00,2.000000,,2013-04-19 13:32:00,
2013-04-19 07:42:00,31.0,28.0,-100.00,West,269,2.0,3.0,87,0.00,,,0.00,2.000000,,2013-04-19 13:42:00,
2013-04-19 07:52:00,31.0,28.0,-100.00,West,269,2.0,3.0,87,0.00,,,0.00,2.000000,,2013-04-19 13:52:00,
2013-04-19 08:01:00,31.0,28.0,-100.00,West,269,2.0,3.0,87,0.00,,,0.00,2.000000,,2013-04-19 14:01:00,
2013-04-19 08:22:00,33.0,29.0,-100.00,WSW,243,2.0,5.0,84,0.00,,,0.00,25.000000,,2013-04-19 14:22:00,
2013-04-19 08:32:00,33.0,29.0,-100.00,WSW,243,2.0,5.0,84,0.00,,,0.00,25.000000,,2013-04-19 14:32:00,
2013-04-19 08:43:00,33.0,29.0,-100.00,WSW,243,2.0,5.0,84,0.00,,,0.00,25.000000,,2013-04-19 14:43:00,
2013-04-19 08:52:00,33.0,29.0,-100.00,WSW,243,2.0,5.0,84,0.00,,,0.00,25.000000,,2013-04-19 14:52:00,
2013-04-19 09:01:00,33.0,29.0,-100.00,WSW,243,2.0,5.0,84,0.00,,,0.00,25.000000,,2013-04-19 15:01:00,
2013-04-19 09:02:00,36.0,29.0,-100.00,South,181,3.0,6.0,77,0.01,,,0.01,91.000000,,2013-04-19 15:02:00,
2013-04-19 09:22:00,36.0,29.0,-100.00,South,181,3.0,6.0,77,0.01,,,0.01,91.000000,,2013-04-19 15:22:00,
2013-04-19 09:33:00,36.0,29.0,-100.00,South,181,3.0,6.0,77,0.01,,,0.01,91.000000,,2013-04-19 15:33:00,
2013-04-19 09:43:00,36.0,29.0,-100.00,South,181,3.0,6.0,77,0.01,,,0.01,91.000000,,2013-04-19 15:43:00,
2013-04-19 09:52:00,36.0,29.0,-100.00,South,181,3.0,6.0,77,0.01,,,0.01,91.000000,,2013-04-19 15:52:00,
2013-04-19 10:02:00,38.0,31.0,-100.00,SE,127,2.0,5.0,75,0.00,,,0.01,185.000000,,2013-04-19 16:02:00,
2013-04-19 10:33:00,38.0,31.0,-100.00,SE,127,2.0,5.0,75,0.00,,,0.01,185.000000,,2013-04-19 16:33:00,
2013-04-19 10:42:00,38.0,31.0,-100.00,SE,127,2.0,5.0,75,0.00,,,0.01,185.000000,,2013-04-19 16:42:00,
2013-04-19 10:52:00,38.0,31.0,-100.00,SE,127,2.0,5.0,75,0.00,,,0.01,185.000000,,2013-04-19 16:52:00,
2013-04-19 11:33:00,41.0,31.0,-100.00,ENE,75,3.0,6.0,68,0.00,,,0.01,350.000000,,2013-04-19 17:33:00,
2013-04-19 11:43:00,41.0,31.0,-100.00,ENE,75,3.0,6.0,68,0.00,,,0.01,350.000000,,2013-04-19 17:43:00,
2013-04-19 11:52:00,41.0,31.0,-100.00,ENE,75,3.0,6.0,68,0.00,,,0.01,350.000000,,2013-04-19 17:52:00,
2013-04-19 12:01:00,41.0,31.0,-100.00,ENE,75,3.0,6.0,68,0.00,,,0.01,350.000000,,2013-04-19 18:01:00,
2013-04-19 12:33:00,44.0,31.0,-100.00,SE,144,4.0,9.0,61,0.00,,,0.01,502.000000,,2013-04-19 18:33:00,
2013-04-19 13:01:00,44.0,31.0,-100.00,SE,144,4.0,9.0,61,0.00,,,0.01,502.000000,,2013-04-19 19:01:00,
2013-04-19 13:32:00,47.0,30.0,-100.00,East,93,4.0,11.0,51,0.00,,,0.01,634.000000,,2013-04-19 19:32:00,
2013-04-19 14:01:00,47.0,30.0,-100.00,East,93,4.0,11.0,51,0.00,,,0.01,634.000000,,2013-04-19 20:01:00,
2013-04-19 14:32:00,47.0,30.0,-100.00,SSE,147,4.0,9.0,51,-99.99,,,0.01,679.000000,,2013-04-19 20:32:00,
2013-04-19 15:02:00,47.0,30.0,-100.00,ESE,111,4.0,10.0,52,0.00,,,0.01,665.000000,,2013-04-19 21:02:00,
2013-04-19 15:32:00,47.0,30.0,-100.00,ESE,111,4.0,10.0,52,0.00,,,0.01,665.000000,,2013-04-19 21:32:00,
2013-04-19 15:43:00,47.0,30.0,-100.00,ESE,111,4.0,10.0,52,0.00,,,0.01,665.000000,,2013-04-19 21:43:00,
2013-04-19 15:52:00,47.0,30.0,-100.00,ESE,111,4.0,10.0,52,0.00,,,0.01,665.000000,,2013-04-19 21:52:00,
2013-04-19 16:02:00,45.0,34.0,-100.00,East,97,3.0,11.0,64,0.00,,,0.01,432.000000,,2013-04-19 22:02:00,
2013-04-19 16:33:00,45.0,34.0,-100.00,East,97,3.0,11.0,64,0.00,,,0.01,432.000000,,2013-04-19 22:33:00,
2013-04-19 16:42:00,45.0,34.0,-100.00,East,97,3.0,11.0,64,0.00,,,0.01,432.000000,,2013-04-19 22:42:00,
2013-04-19 16:52:00,45.0,34.0,-100.00,East,97,3.0,11.0,64,0.00,,,0.01,432.000000,,2013-04-19 22:52:00,
2013-04-19 17:32:00,40.0,34.0,-100.00,North,3,2.0,10.0,79,0.01,,,-99.99,230.000000,,2013-04-19 23:32:00,
2013-04-19 17:42:00,40.0,34.0,-100.00,North,3,2.0,10.0,79,0.01,,,-99.99,230.000000,,2013-04-19 23:42:00,
2013-04-19 17:52:00,40.0,34.0,-100.00,North,3,2.0,10.0,79,0.01,,,-99.99,230.000000,,2013-04-19 23:52:00,
2013-04-19 18:01:00,40.0,34.0,-100.00,North,3,2.0,10.0,79,0.01,,,-99.99,230.000000,,2013-04-20 00:01:00,
2013-04-19 18:32:00,40.0,35.0,-100.00,ENE,65,2.0,6.0,82,0.01,,,0.03,187.000000,,2013-04-20 00:32:00,
2013-04-19 18:42:00,40.0,35.0,-100.00,ENE,65,2.0,6.0,82,0.01,,,0.03,187.000000,,2013-04-20 00:42:00,
2013-04-19 18:52:00,40.0,35.0,-100.00,ENE,65,2.0,6.0,82,0.01,,,0.03,187.000000,,2013-04-20 00:52:00,
2013-04-19 19:01:00,40.0,35.0,-100.00,ENE,65,2.0,6.0,82,0.01,,,0.03,187.000000,,2013-04-20 01:01:00,
2013-04-19 19:32:00,39.0,35.0,-100.00,NE,56,3.0,4.0,86,0.01,,,0.04,126.000000,,2013-04-20 01:32:00,
2013-04-19 19:42:00,39.0,35.0,-100.00,NE,56,3.0,4.0,86,0.01,,,0.04,126.000000,,2013-04-20 01:42:00,
2013-04-19 19:52:00,39.0,35.0,-100.00,NE,56,3.0,4.0,86,0.01,,,0.04,126.000000,,2013-04-20 01:52:00,
2013-04-19 20:01:00,39.0,35.0,-100.00,NE,56,3.0,4.0,86,0.01,,,0.04,126.000000,,2013-04-20 02:01:00,
2013-04-19 20:32:00,37.0,34.0,-100.00,NNW,334,1.0,5.0,88,0.01,,,0.05,36.000000,,2013-04-20 02:32:00,
2013-04-19 20:42:00,37.0,34.0,-100.00,NNW,334,1.0,5.0,88,0.01,,,0.05,36.000000,,2013-04-20 02:42:00,
2013-04-19 20:52:00,37.0,34.0,-100.00,NNW,334,1.0,5.0,88,0.01,,,0.05,36.000000,,2013-04-20 02:52:00,
2013-04-19 21:01:00,37.0,34.0,-100.00,NNW,334,1.0,5.0,88,0.01,,,0.05,36.000000,,2013-04-20 03:01:00,
2013-04-19 21:02:00,36.0,33.0,-100.00,NW,312,2.0,3.0,87,0.00,,,0.05,5.000000,,2013-04-20 03:02:00,
2013-04-19 21:33:00,36.0,33.0,-100.00,NW,312,2.0,3.0,87,0.00,,,0.05,5.000000,,2013-04-20 03:33:00,
2013-04-19 21:43:00,36.0,33.0,-100.00,NW,312,2.0,3.0,87,0.00,,,0.05,5.000000,,2013-04-20 03:43:00,
2013-04-19 21:53:00,36.0,33.0,-100.00,NW,312,2.0,3.0,87,0.00,,,0.05,5.000000,,2013-04-20 03:53:00,
2013-04-19 22:33:00,36.0,32.0,-100.00,NW,320,2.0,5.0,85,0.00,,,0.05,0.000000,,2013-04-20 04:33:00,
2013-04-19 22:43:00,36.0,32.0,-100.00,NW,320,2.0,5.0,85,0.00,,,0.05,0.000000,,2013-04-20 04:43:00,
2013-04-19 22:52:00,36.0,32.0,-100.00,NW,320,2.0,5.0,85,0.00,,,0.05,0.000000,,2013-04-20 04:52:00,
2013-04-19 23:01:00,36.0,32.0,-100.00,NW,320,2.0,5.0,85,0.00,,,0.05,0.000000,,2013-04-20 05:01:00,
2013-04-19 23:22:00,35.0,29.0,-100.00,NNW,342,2.0,4.0,80,0.00,,,0.05,0.000000,,2013-04-20 05:22:00,
2013-04-19 23:32:00,35.0,29.0,-100.00,NNW,342,2.0,4.0,80,0.00,,,0.05,0.000000,,2013-04-20 05:32:00,
2013-04-19 23:43:00,35.0,29.0,-100.00,NNW,342,2.0,4.0,80,0.00,,,0.05,0.000000,,2013-04-20 05:43:00,
2013-04-19 23:52:00,35.0,29.0,-100.00,NNW,342,2.0,4.0,80,0.00,,,0.05,0.000000,,2013-04-20 05:52:00,